sensor_id;sensor_type;location;lat;lon;timestamp;P1;durP1;ratioP1;P2;durP2;ratioP2
49221;SDS011;35047;37.588;-122.048;2023-08-31T00:00:43;9.23;;;5.72;;
49221;SDS011;35047;37.588;-122.048;2023-08-31T00:03:10;15.00;;;7.88;;
49221;SDS011;35047;37.588;-122.048;2023-08-31T00:05:38;20.50;;;7.30;;
49221;SDS011;35047;37.588;-122.048;2023-08-31T00:08:06;16.40;;;7.10;;
49221;SDS011;35047;37.588;-122.048;2023-08-31T00:10:34;14.30;;;7.57;;
49221;SDS011;35047;37.588;-122.048;2023-08-31T00:13:04;12.65;;;6.35;;
49221;SDS011;35047;37.588;-122.048;2023-08-31T00:15:34;12.73;;;7.13;;
49221;SDS011;35047;37.588;-122.048;2023-08-31T00:18:02;15.45;;;8.55;;
49221;SDS011;35047;37.588;-122.048;2023-08-31T00:20:32;16.60;;;7.65;;
49221;SDS011;35047;37.588;-122.048;2023-08-31T00:22:59;13.40;;;7.55;;
49221;SDS011;35047;37.588;-122.048;2023-08-31T00:25:26;17.75;;;9.68;;
49221;SDS011;35047;37.588;-122.048;2023-08-31T00:27:53;20.77;;;9.27;;
49221;SDS011;35047;37.588;-122.048;2023-08-31T00:32:51;17.50;;;10.13;;
49221;SDS011;35047;37.588;-122.048;2023-08-31T00:35:18;16.63;;;9.13;;
49221;SDS011;35047;37.588;-122.048;2023-08-31T00:37:45;16.25;;;9.18;;
49221;SDS011;35047;37.588;-122.048;2023-08-31T00:40:12;20.02;;;8.10;;
49221;SDS011;35047;37.588;-122.048;2023-08-31T00:42:39;20.42;;;9.88;;
49221;SDS011;35047;37.588;-122.048;2023-08-31T00:45:07;15.38;;;7.72;;
49221;SDS011;35047;37.588;-122.048;2023-08-31T00:47:35;18.92;;;9.35;;
49221;SDS011;35047;37.588;-122.048;2023-08-31T00:50:02;19.13;;;9.10;;
49221;SDS011;35047;37.588;-122.048;2023-08-31T00:52:29;18.70;;;11.27;;
49221;SDS011;35047;37.588;-122.048;2023-08-31T00:54:56;10.90;;;7.72;;
49221;SDS011;35047;37.588;-122.048;2023-08-31T00:57:22;19.02;;;8.88;;
49221;SDS011;35047;37.588;-122.048;2023-08-31T00:59:51;11.95;;;8.50;;
49221;SDS011;35047;37.588;-122.048;2023-08-31T01:02:27;10.02;;;6.70;;
49221;SDS011;35047;37.588;-122.048;2023-08-31T01:05:04;13.82;;;8.98;;
49221;SDS011;35047;37.588;-122.048;2023-08-31T01:07:43;16.67;;;7.60;;
49221;SDS011;35047;37.588;-122.048;2023-08-31T01:13:33;18.80;;;8.65;;
49221;SDS011;35047;37.588;-122.048;2023-08-31T01:15:41;15.60;;;8.50;;
49221;SDS011;35047;37.588;-122.048;2023-08-31T01:18:16;16.63;;;8.00;;
49221;SDS011;35047;37.588;-122.048;2023-08-31T01:21:06;13.98;;;7.68;;
49221;SDS011;35047;37.588;-122.048;2023-08-31T01:23:58;14.70;;;8.93;;
49221;SDS011;35047;37.588;-122.048;2023-08-31T01:26:25;13.10;;;8.02;;
49221;SDS011;35047;37.588;-122.048;2023-08-31T01:28:52;15.20;;;8.65;;
49221;SDS011;35047;37.588;-122.048;2023-08-31T01:31:21;14.80;;;8.80;;
49221;SDS011;35047;37.588;-122.048;2023-08-31T01:33:47;13.75;;;8.13;;
49221;SDS011;35047;37.588;-122.048;2023-08-31T01:38:45;13.45;;;8.73;;
49221;SDS011;35047;37.588;-122.048;2023-08-31T01:41:16;10.13;;;7.43;;
49221;SDS011;35047;37.588;-122.048;2023-08-31T01:43:45;14.00;;;9.23;;
49221;SDS011;35047;37.588;-122.048;2023-08-31T01:46:13;14.25;;;8.57;;
49221;SDS011;35047;37.588;-122.048;2023-08-31T01:48:40;14.95;;;8.93;;
49221;SDS011;35047;37.588;-122.048;2023-08-31T01:51:07;14.52;;;8.95;;
49221;SDS011;35047;37.588;-122.048;2023-08-31T01:53:35;16.05;;;8.63;;
49221;SDS011;35047;37.588;-122.048;2023-08-31T01:56:02;12.40;;;8.05;;
49221;SDS011;35047;37.588;-122.048;2023-08-31T01:58:30;15.10;;;8.65;;
49221;SDS011;35047;37.588;-122.048;2023-08-31T02:00:57;30.15;;;10.18;;
49221;SDS011;35047;37.588;-122.048;2023-08-31T02:03:23;12.90;;;8.02;;
49221;SDS011;35047;37.588;-122.048;2023-08-31T02:05:50;17.58;;;7.63;;
49221;SDS011;35047;37.588;-122.048;2023-08-31T02:10:43;13.20;;;7.82;;
49221;SDS011;35047;37.588;-122.048;2023-08-31T02:13:13;15.60;;;7.93;;
49221;SDS011;35047;37.588;-122.048;2023-08-31T02:15:41;20.70;;;10.07;;
49221;SDS011;35047;37.588;-122.048;2023-08-31T02:18:08;15.05;;;7.57;;
49221;SDS011;35047;37.588;-122.048;2023-08-31T02:20:35;14.13;;;8.68;;
49221;SDS011;35047;37.588;-122.048;2023-08-31T02:23:02;15.55;;;9.00;;
49221;SDS011;35047;37.588;-122.048;2023-08-31T02:25:28;20.40;;;10.45;;
49221;SDS011;35047;37.588;-122.048;2023-08-31T02:27:55;18.15;;;7.07;;
49221;SDS011;35047;37.588;-122.048;2023-08-31T02:30:21;15.00;;;7.97;;
49221;SDS011;35047;37.588;-122.048;2023-08-31T02:32:48;18.08;;;8.45;;
49221;SDS011;35047;37.588;-122.048;2023-08-31T02:35:18;20.13;;;9.30;;
49221;SDS011;35047;37.588;-122.048;2023-08-31T02:37:45;14.73;;;7.93;;
49221;SDS011;35047;37.588;-122.048;2023-08-31T02:40:12;18.08;;;8.02;;
49221;SDS011;35047;37.588;-122.048;2023-08-31T02:42:39;10.60;;;6.68;;
49221;SDS011;35047;37.588;-122.048;2023-08-31T02:45:05;15.90;;;7.60;;
49221;SDS011;35047;37.588;-122.048;2023-08-31T02:47:32;12.07;;;7.20;;
49221;SDS011;35047;37.588;-122.048;2023-08-31T02:49:59;14.57;;;7.10;;
49221;SDS011;35047;37.588;-122.048;2023-08-31T02:52:25;10.40;;;7.38;;
49221;SDS011;35047;37.588;-122.048;2023-08-31T02:54:52;19.83;;;9.20;;
49221;SDS011;35047;37.588;-122.048;2023-08-31T02:57:19;19.95;;;8.45;;
49221;SDS011;35047;37.588;-122.048;2023-08-31T02:59:50;15.48;;;8.55;;
49221;SDS011;35047;37.588;-122.048;2023-08-31T03:02:16;17.95;;;8.82;;
49221;SDS011;35047;37.588;-122.048;2023-08-31T03:04:43;17.60;;;8.43;;
49221;SDS011;35047;37.588;-122.048;2023-08-31T03:07:10;16.92;;;8.80;;
49221;SDS011;35047;37.588;-122.048;2023-08-31T03:09:39;12.57;;;8.10;;
49221;SDS011;35047;37.588;-122.048;2023-08-31T03:14:32;12.68;;;7.40;;
49221;SDS011;35047;37.588;-122.048;2023-08-31T03:16:58;13.07;;;8.27;;
49221;SDS011;35047;37.588;-122.048;2023-08-31T03:19:25;13.57;;;7.55;;
49221;SDS011;35047;37.588;-122.048;2023-08-31T03:21:51;13.20;;;7.40;;
49221;SDS011;35047;37.588;-122.048;2023-08-31T03:24:18;18.40;;;8.20;;
49221;SDS011;35047;37.588;-122.048;2023-08-31T03:26:44;16.17;;;9.48;;
49221;SDS011;35047;37.588;-122.048;2023-08-31T03:29:11;17.27;;;7.53;;
49221;SDS011;35047;37.588;-122.048;2023-08-31T03:31:37;22.52;;;6.97;;
49221;SDS011;35047;37.588;-122.048;2023-08-31T03:34:04;12.73;;;6.60;;
49221;SDS011;35047;37.588;-122.048;2023-08-31T03:36:31;15.65;;;8.07;;
49221;SDS011;35047;37.588;-122.048;2023-08-31T03:38:57;12.18;;;6.60;;
49221;SDS011;35047;37.588;-122.048;2023-08-31T03:41:23;14.65;;;7.20;;
49221;SDS011;35047;37.588;-122.048;2023-08-31T03:43:50;12.73;;;6.95;;
49221;SDS011;35047;37.588;-122.048;2023-08-31T03:46:16;16.70;;;6.55;;
49221;SDS011;35047;37.588;-122.048;2023-08-31T03:48:43;9.52;;;6.35;;
49221;SDS011;35047;37.588;-122.048;2023-08-31T03:51:09;20.85;;;7.10;;
49221;SDS011;35047;37.588;-122.048;2023-08-31T03:53:36;19.85;;;8.23;;
49221;SDS011;35047;37.588;-122.048;2023-08-31T03:56:02;13.73;;;6.97;;
49221;SDS011;35047;37.588;-122.048;2023-08-31T04:00:56;10.82;;;6.68;;
49221;SDS011;35047;37.588;-122.048;2023-08-31T04:05:53;15.45;;;6.95;;
49221;SDS011;35047;37.588;-122.048;2023-08-31T04:08:20;16.42;;;7.68;;
49221;SDS011;35047;37.588;-122.048;2023-08-31T04:10:47;14.13;;;6.60;;
49221;SDS011;35047;37.588;-122.048;2023-08-31T04:13:13;14.35;;;7.55;;
49221;SDS011;35047;37.588;-122.048;2023-08-31T04:15:40;12.20;;;6.57;;
49221;SDS011;35047;37.588;-122.048;2023-08-31T04:18:07;16.05;;;6.80;;
49221;SDS011;35047;37.588;-122.048;2023-08-31T04:20:33;10.52;;;6.05;;
49221;SDS011;35047;37.588;-122.048;2023-08-31T04:23:00;11.38;;;7.15;;
49221;SDS011;35047;37.588;-122.048;2023-08-31T04:27:54;9.95;;;5.80;;
49221;SDS011;35047;37.588;-122.048;2023-08-31T04:30:21;8.25;;;6.03;;
49221;SDS011;35047;37.588;-122.048;2023-08-31T04:32:48;11.30;;;6.40;;
49221;SDS011;35047;37.588;-122.048;2023-08-31T04:35:14;20.45;;;6.85;;
49221;SDS011;35047;37.588;-122.048;2023-08-31T04:37:41;12.32;;;5.43;;
49221;SDS011;35047;37.588;-122.048;2023-08-31T04:40:08;12.07;;;6.05;;
49221;SDS011;35047;37.588;-122.048;2023-08-31T04:45:01;19.15;;;5.68;;
49221;SDS011;35047;37.588;-122.048;2023-08-31T04:47:27;15.10;;;6.78;;
49221;SDS011;35047;37.588;-122.048;2023-08-31T04:49:54;11.40;;;6.85;;
49221;SDS011;35047;37.588;-122.048;2023-08-31T04:54:47;14.93;;;5.90;;
49221;SDS011;35047;37.588;-122.048;2023-08-31T04:57:13;9.98;;;6.07;;
49221;SDS011;35047;37.588;-122.048;2023-08-31T04:59:40;12.70;;;5.72;;
49221;SDS011;35047;37.588;-122.048;2023-08-31T05:02:06;11.55;;;5.63;;
49221;SDS011;35047;37.588;-122.048;2023-08-31T05:04:33;16.15;;;7.18;;
49221;SDS011;35047;37.588;-122.048;2023-08-31T05:06:59;14.35;;;5.80;;
49221;SDS011;35047;37.588;-122.048;2023-08-31T05:09:26;12.40;;;5.55;;
49221;SDS011;35047;37.588;-122.048;2023-08-31T05:11:52;15.25;;;5.53;;
49221;SDS011;35047;37.588;-122.048;2023-08-31T05:14:18;7.63;;;5.43;;
49221;SDS011;35047;37.588;-122.048;2023-08-31T05:16:45;19.42;;;5.35;;
49221;SDS011;35047;37.588;-122.048;2023-08-31T05:19:12;16.00;;;6.53;;
49221;SDS011;35047;37.588;-122.048;2023-08-31T05:21:39;10.60;;;5.38;;
49221;SDS011;35047;37.588;-122.048;2023-08-31T05:24:05;9.88;;;5.55;;
49221;SDS011;35047;37.588;-122.048;2023-08-31T05:26:32;13.85;;;5.80;;
49221;SDS011;35047;37.588;-122.048;2023-08-31T05:28:58;8.30;;;5.57;;
49221;SDS011;35047;37.588;-122.048;2023-08-31T05:31:24;11.73;;;6.78;;
49221;SDS011;35047;37.588;-122.048;2023-08-31T05:33:51;9.10;;;5.05;;
49221;SDS011;35047;37.588;-122.048;2023-08-31T05:36:17;14.65;;;6.15;;
49221;SDS011;35047;37.588;-122.048;2023-08-31T05:38:44;12.45;;;6.05;;
49221;SDS011;35047;37.588;-122.048;2023-08-31T05:41:10;13.65;;;5.90;;
49221;SDS011;35047;37.588;-122.048;2023-08-31T05:43:37;7.63;;;5.38;;
49221;SDS011;35047;37.588;-122.048;2023-08-31T05:46:07;9.82;;;5.72;;
49221;SDS011;35047;37.588;-122.048;2023-08-31T05:48:34;11.05;;;5.40;;
49221;SDS011;35047;37.588;-122.048;2023-08-31T05:51:01;13.48;;;6.25;;
49221;SDS011;35047;37.588;-122.048;2023-08-31T05:53:31;11.85;;;6.07;;
49221;SDS011;35047;37.588;-122.048;2023-08-31T05:55:58;10.43;;;5.80;;
49221;SDS011;35047;37.588;-122.048;2023-08-31T05:58:35;7.90;;;4.80;;
49221;SDS011;35047;37.588;-122.048;2023-08-31T06:01:03;13.15;;;5.72;;
49221;SDS011;35047;37.588;-122.048;2023-08-31T06:03:30;9.30;;;6.13;;
49221;SDS011;35047;37.588;-122.048;2023-08-31T06:08:23;11.77;;;6.05;;
49221;SDS011;35047;37.588;-122.048;2023-08-31T06:10:50;8.00;;;4.55;;
49221;SDS011;35047;37.588;-122.048;2023-08-31T06:15:43;15.27;;;4.72;;
49221;SDS011;35047;37.588;-122.048;2023-08-31T06:18:10;21.65;;;4.93;;
49221;SDS011;35047;37.588;-122.048;2023-08-31T06:20:36;11.35;;;5.18;;
49221;SDS011;35047;37.588;-122.048;2023-08-31T06:23:03;8.65;;;3.83;;
49221;SDS011;35047;37.588;-122.048;2023-08-31T06:25:30;5.30;;;3.00;;
49221;SDS011;35047;37.588;-122.048;2023-08-31T06:27:57;8.50;;;4.45;;
49221;SDS011;35047;37.588;-122.048;2023-08-31T06:30:23;9.38;;;4.90;;
49221;SDS011;35047;37.588;-122.048;2023-08-31T06:32:50;12.02;;;4.15;;
49221;SDS011;35047;37.588;-122.048;2023-08-31T06:35:16;7.38;;;3.50;;
49221;SDS011;35047;37.588;-122.048;2023-08-31T06:37:45;9.05;;;4.55;;
49221;SDS011;35047;37.588;-122.048;2023-08-31T06:40:11;6.38;;;4.32;;
49221;SDS011;35047;37.588;-122.048;2023-08-31T06:45:05;11.68;;;4.72;;
49221;SDS011;35047;37.588;-122.048;2023-08-31T06:47:33;8.48;;;3.97;;
49221;SDS011;35047;37.588;-122.048;2023-08-31T06:50:00;7.97;;;3.30;;
49221;SDS011;35047;37.588;-122.048;2023-08-31T06:52:26;7.68;;;4.03;;
49221;SDS011;35047;37.588;-122.048;2023-08-31T06:54:53;7.65;;;4.00;;
49221;SDS011;35047;37.588;-122.048;2023-08-31T06:57:23;14.50;;;4.07;;
49221;SDS011;35047;37.588;-122.048;2023-08-31T06:59:51;8.13;;;3.25;;
49221;SDS011;35047;37.588;-122.048;2023-08-31T07:02:19;8.43;;;3.50;;
49221;SDS011;35047;37.588;-122.048;2023-08-31T07:04:47;6.85;;;3.80;;
49221;SDS011;35047;37.588;-122.048;2023-08-31T07:07:14;7.00;;;2.75;;
49221;SDS011;35047;37.588;-122.048;2023-08-31T07:09:43;8.07;;;3.72;;
49221;SDS011;35047;37.588;-122.048;2023-08-31T07:12:11;5.75;;;2.60;;
49221;SDS011;35047;37.588;-122.048;2023-08-31T07:14:37;8.70;;;3.67;;
49221;SDS011;35047;37.588;-122.048;2023-08-31T07:17:04;7.63;;;2.70;;
49221;SDS011;35047;37.588;-122.048;2023-08-31T07:19:30;8.45;;;4.50;;
49221;SDS011;35047;37.588;-122.048;2023-08-31T07:21:57;10.82;;;3.55;;
49221;SDS011;35047;37.588;-122.048;2023-08-31T07:24:24;9.65;;;4.15;;
49221;SDS011;35047;37.588;-122.048;2023-08-31T07:26:51;10.65;;;3.53;;
49221;SDS011;35047;37.588;-122.048;2023-08-31T07:29:17;6.00;;;3.65;;
49221;SDS011;35047;37.588;-122.048;2023-08-31T07:31:44;12.73;;;4.28;;
49221;SDS011;35047;37.588;-122.048;2023-08-31T07:34:10;13.73;;;3.42;;
49221;SDS011;35047;37.588;-122.048;2023-08-31T07:36:37;10.60;;;3.70;;
49221;SDS011;35047;37.588;-122.048;2023-08-31T07:39:04;11.32;;;3.90;;
49221;SDS011;35047;37.588;-122.048;2023-08-31T07:41:32;8.80;;;4.20;;
49221;SDS011;35047;37.588;-122.048;2023-08-31T07:43:58;7.05;;;3.70;;
49221;SDS011;35047;37.588;-122.048;2023-08-31T07:46:25;11.95;;;3.83;;
49221;SDS011;35047;37.588;-122.048;2023-08-31T07:48:51;15.10;;;4.50;;
49221;SDS011;35047;37.588;-122.048;2023-08-31T07:51:18;10.88;;;4.18;;
49221;SDS011;35047;37.588;-122.048;2023-08-31T07:53:48;7.45;;;3.70;;
49221;SDS011;35047;37.588;-122.048;2023-08-31T07:56:15;11.05;;;3.65;;
49221;SDS011;35047;37.588;-122.048;2023-08-31T07:58:41;10.48;;;4.97;;
49221;SDS011;35047;37.588;-122.048;2023-08-31T08:01:08;10.77;;;3.65;;
49221;SDS011;35047;37.588;-122.048;2023-08-31T08:03:34;10.43;;;3.55;;
49221;SDS011;35047;37.588;-122.048;2023-08-31T08:06:01;9.75;;;4.45;;
49221;SDS011;35047;37.588;-122.048;2023-08-31T08:08:28;12.15;;;4.38;;
49221;SDS011;35047;37.588;-122.048;2023-08-31T08:10:55;6.22;;;3.83;;
49221;SDS011;35047;37.588;-122.048;2023-08-31T08:13:21;7.90;;;4.03;;
49221;SDS011;35047;37.588;-122.048;2023-08-31T08:15:48;14.05;;;4.50;;
49221;SDS011;35047;37.588;-122.048;2023-08-31T08:20:41;7.70;;;4.20;;
49221;SDS011;35047;37.588;-122.048;2023-08-31T08:23:07;12.32;;;4.00;;
49221;SDS011;35047;37.588;-122.048;2023-08-31T08:25:34;5.97;;;3.58;;
49221;SDS011;35047;37.588;-122.048;2023-08-31T08:28:00;7.57;;;3.90;;
49221;SDS011;35047;37.588;-122.048;2023-08-31T08:30:28;10.70;;;3.65;;
49221;SDS011;35047;37.588;-122.048;2023-08-31T08:32:55;9.65;;;3.15;;
49221;SDS011;35047;37.588;-122.048;2023-08-31T08:35:22;6.00;;;3.60;;
49221;SDS011;35047;37.588;-122.048;2023-08-31T08:37:49;8.25;;;4.25;;
49221;SDS011;35047;37.588;-122.048;2023-08-31T08:40:15;9.35;;;4.00;;
49221;SDS011;35047;37.588;-122.048;2023-08-31T08:42:43;7.38;;;3.40;;
49221;SDS011;35047;37.588;-122.048;2023-08-31T08:45:15;11.98;;;3.83;;
49221;SDS011;35047;37.588;-122.048;2023-08-31T08:47:44;7.60;;;2.92;;
49221;SDS011;35047;37.588;-122.048;2023-08-31T08:50:12;14.38;;;5.20;;
49221;SDS011;35047;37.588;-122.048;2023-08-31T08:52:39;5.82;;;3.35;;
49221;SDS011;35047;37.588;-122.048;2023-08-31T08:55:07;15.23;;;3.63;;
49221;SDS011;35047;37.588;-122.048;2023-08-31T08:57:35;7.97;;;3.33;;
49221;SDS011;35047;37.588;-122.048;2023-08-31T09:00:01;5.10;;;3.15;;
49221;SDS011;35047;37.588;-122.048;2023-08-31T09:02:29;7.95;;;3.28;;
49221;SDS011;35047;37.588;-122.048;2023-08-31T09:04:55;9.75;;;3.38;;
49221;SDS011;35047;37.588;-122.048;2023-08-31T09:07:22;9.73;;;3.55;;
49221;SDS011;35047;37.588;-122.048;2023-08-31T09:09:49;7.05;;;3.15;;
49221;SDS011;35047;37.588;-122.048;2023-08-31T09:12:17;17.77;;;3.30;;
49221;SDS011;35047;37.588;-122.048;2023-08-31T09:17:23;9.23;;;3.40;;
49221;SDS011;35047;37.588;-122.048;2023-08-31T09:19:58;6.97;;;3.25;;
49221;SDS011;35047;37.588;-122.048;2023-08-31T09:22:26;5.38;;;2.72;;
49221;SDS011;35047;37.588;-122.048;2023-08-31T09:24:52;6.20;;;2.80;;
49221;SDS011;35047;37.588;-122.048;2023-08-31T09:27:20;6.50;;;2.72;;
49221;SDS011;35047;37.588;-122.048;2023-08-31T09:29:48;5.70;;;3.80;;
49221;SDS011;35047;37.588;-122.048;2023-08-31T09:32:18;8.68;;;3.20;;
49221;SDS011;35047;37.588;-122.048;2023-08-31T09:34:45;8.73;;;3.03;;
49221;SDS011;35047;37.588;-122.048;2023-08-31T09:37:11;4.55;;;3.13;;
49221;SDS011;35047;37.588;-122.048;2023-08-31T09:39:41;11.88;;;3.22;;
49221;SDS011;35047;37.588;-122.048;2023-08-31T09:42:08;10.40;;;3.42;;
49221;SDS011;35047;37.588;-122.048;2023-08-31T09:44:34;8.70;;;3.10;;
49221;SDS011;35047;37.588;-122.048;2023-08-31T09:47:08;5.13;;;3.47;;
49221;SDS011;35047;37.588;-122.048;2023-08-31T09:49:35;9.50;;;3.03;;
49221;SDS011;35047;37.588;-122.048;2023-08-31T09:52:04;6.28;;;3.63;;
49221;SDS011;35047;37.588;-122.048;2023-08-31T09:54:33;5.35;;;3.03;;
49221;SDS011;35047;37.588;-122.048;2023-08-31T09:57:01;11.98;;;3.83;;
49221;SDS011;35047;37.588;-122.048;2023-08-31T09:59:28;10.93;;;4.03;;
49221;SDS011;35047;37.588;-122.048;2023-08-31T10:01:55;11.45;;;4.15;;
49221;SDS011;35047;37.588;-122.048;2023-08-31T10:04:22;7.22;;;3.70;;
49221;SDS011;35047;37.588;-122.048;2023-08-31T10:06:49;13.68;;;3.13;;
49221;SDS011;35047;37.588;-122.048;2023-08-31T10:09:17;9.60;;;4.13;;
49221;SDS011;35047;37.588;-122.048;2023-08-31T10:11:44;4.95;;;3.13;;
49221;SDS011;35047;37.588;-122.048;2023-08-31T10:14:12;7.35;;;4.07;;
49221;SDS011;35047;37.588;-122.048;2023-08-31T10:16:39;8.85;;;3.45;;
49221;SDS011;35047;37.588;-122.048;2023-08-31T10:19:09;10.30;;;3.63;;
49221;SDS011;35047;37.588;-122.048;2023-08-31T10:21:36;6.05;;;3.45;;
49221;SDS011;35047;37.588;-122.048;2023-08-31T10:24:04;7.85;;;3.42;;
49221;SDS011;35047;37.588;-122.048;2023-08-31T10:26:32;13.02;;;4.00;;
49221;SDS011;35047;37.588;-122.048;2023-08-31T10:28:59;7.20;;;4.13;;
49221;SDS011;35047;37.588;-122.048;2023-08-31T10:31:28;8.85;;;3.78;;
49221;SDS011;35047;37.588;-122.048;2023-08-31T10:34:05;6.70;;;3.33;;
49221;SDS011;35047;37.588;-122.048;2023-08-31T10:39:06;9.63;;;4.25;;
49221;SDS011;35047;37.588;-122.048;2023-08-31T10:41:42;10.57;;;4.10;;
49221;SDS011;35047;37.588;-122.048;2023-08-31T10:44:25;5.70;;;3.30;;
49221;SDS011;35047;37.588;-122.048;2023-08-31T10:46:53;12.27;;;4.65;;
49221;SDS011;35047;37.588;-122.048;2023-08-31T10:49:21;9.93;;;4.20;;
49221;SDS011;35047;37.588;-122.048;2023-08-31T10:52:00;13.57;;;4.18;;
49221;SDS011;35047;37.588;-122.048;2023-08-31T10:54:45;9.63;;;3.97;;
49221;SDS011;35047;37.588;-122.048;2023-08-31T10:57:13;6.90;;;3.58;;
49221;SDS011;35047;37.588;-122.048;2023-08-31T10:59:42;7.53;;;4.03;;
49221;SDS011;35047;37.588;-122.048;2023-08-31T11:05:05;16.05;;;5.05;;
49221;SDS011;35047;37.588;-122.048;2023-08-31T11:07:34;7.60;;;4.03;;
49221;SDS011;35047;37.588;-122.048;2023-08-31T11:10:20;10.88;;;3.33;;
49221;SDS011;35047;37.588;-122.048;2023-08-31T11:12:52;7.68;;;3.47;;
49221;SDS011;35047;37.588;-122.048;2023-08-31T11:15:20;11.15;;;5.53;;
49221;SDS011;35047;37.588;-122.048;2023-08-31T11:17:51;16.50;;;4.50;;
49221;SDS011;35047;37.588;-122.048;2023-08-31T11:20:20;10.38;;;3.70;;
49221;SDS011;35047;37.588;-122.048;2023-08-31T11:22:48;9.70;;;4.13;;
49221;SDS011;35047;37.588;-122.048;2023-08-31T11:25:16;10.98;;;4.72;;
49221;SDS011;35047;37.588;-122.048;2023-08-31T11:30:32;11.52;;;3.55;;
49221;SDS011;35047;37.588;-122.048;2023-08-31T11:35:35;3.75;;;2.53;;
49221;SDS011;35047;37.588;-122.048;2023-08-31T11:38:05;10.35;;;3.28;;
49221;SDS011;35047;37.588;-122.048;2023-08-31T11:40:32;12.85;;;2.97;;
49221;SDS011;35047;37.588;-122.048;2023-08-31T11:42:58;4.85;;;2.30;;
49221;SDS011;35047;37.588;-122.048;2023-08-31T11:45:34;11.45;;;2.92;;
49221;SDS011;35047;37.588;-122.048;2023-08-31T11:48:03;7.80;;;2.40;;
49221;SDS011;35047;37.588;-122.048;2023-08-31T11:50:31;4.53;;;2.33;;
49221;SDS011;35047;37.588;-122.048;2023-08-31T11:52:57;4.80;;;2.58;;
49221;SDS011;35047;37.588;-122.048;2023-08-31T11:55:24;7.88;;;2.80;;
49221;SDS011;35047;37.588;-122.048;2023-08-31T11:57:51;5.68;;;2.22;;
49221;SDS011;35047;37.588;-122.048;2023-08-31T12:00:22;3.90;;;2.28;;
49221;SDS011;35047;37.588;-122.048;2023-08-31T12:02:59;4.93;;;3.03;;
49221;SDS011;35047;37.588;-122.048;2023-08-31T12:05:26;7.60;;;2.70;;
49221;SDS011;35047;37.588;-122.048;2023-08-31T12:07:54;12.20;;;3.47;;
49221;SDS011;35047;37.588;-122.048;2023-08-31T12:10:23;7.72;;;2.97;;
49221;SDS011;35047;37.588;-122.048;2023-08-31T12:12:51;12.15;;;3.45;;
49221;SDS011;35047;37.588;-122.048;2023-08-31T12:15:18;4.00;;;2.53;;
49221;SDS011;35047;37.588;-122.048;2023-08-31T12:17:47;15.02;;;3.75;;
49221;SDS011;35047;37.588;-122.048;2023-08-31T12:20:24;8.10;;;2.63;;
49221;SDS011;35047;37.588;-122.048;2023-08-31T12:22:51;6.07;;;2.60;;
49221;SDS011;35047;37.588;-122.048;2023-08-31T12:25:21;8.65;;;2.28;;
49221;SDS011;35047;37.588;-122.048;2023-08-31T12:27:48;6.70;;;2.83;;
49221;SDS011;35047;37.588;-122.048;2023-08-31T12:32:41;21.20;;;3.65;;
49221;SDS011;35047;37.588;-122.048;2023-08-31T12:35:07;6.53;;;3.05;;
49221;SDS011;35047;37.588;-122.048;2023-08-31T12:37:35;16.98;;;3.70;;
49221;SDS011;35047;37.588;-122.048;2023-08-31T12:40:01;9.75;;;3.20;;
49221;SDS011;35047;37.588;-122.048;2023-08-31T12:42:31;5.72;;;2.83;;
49221;SDS011;35047;37.588;-122.048;2023-08-31T12:44:57;11.68;;;3.03;;
49221;SDS011;35047;37.588;-122.048;2023-08-31T12:47:24;12.47;;;2.67;;
49221;SDS011;35047;37.588;-122.048;2023-08-31T12:49:50;14.37;;;3.73;;
49221;SDS011;35047;37.588;-122.048;2023-08-31T12:52:17;9.80;;;3.03;;
49221;SDS011;35047;37.588;-122.048;2023-08-31T12:54:43;13.65;;;2.78;;
49221;SDS011;35047;37.588;-122.048;2023-08-31T12:57:10;6.10;;;3.77;;
49221;SDS011;35047;37.588;-122.048;2023-08-31T12:59:36;5.00;;;2.63;;
49221;SDS011;35047;37.588;-122.048;2023-08-31T13:02:03;5.13;;;2.50;;
49221;SDS011;35047;37.588;-122.048;2023-08-31T13:04:35;7.35;;;4.18;;
49221;SDS011;35047;37.588;-122.048;2023-08-31T13:07:02;9.27;;;4.05;;
49221;SDS011;35047;37.588;-122.048;2023-08-31T13:09:29;6.22;;;2.97;;
49221;SDS011;35047;37.588;-122.048;2023-08-31T13:11:56;7.28;;;3.95;;
49221;SDS011;35047;37.588;-122.048;2023-08-31T13:14:23;7.75;;;3.33;;
49221;SDS011;35047;37.588;-122.048;2023-08-31T13:16:49;8.57;;;3.15;;
49221;SDS011;35047;37.588;-122.048;2023-08-31T13:19:15;8.38;;;3.22;;
49221;SDS011;35047;37.588;-122.048;2023-08-31T13:21:42;5.87;;;3.80;;
49221;SDS011;35047;37.588;-122.048;2023-08-31T13:24:09;9.35;;;4.10;;
49221;SDS011;35047;37.588;-122.048;2023-08-31T13:26:35;8.20;;;2.40;;
49221;SDS011;35047;37.588;-122.048;2023-08-31T13:29:01;3.63;;;2.83;;
49221;SDS011;35047;37.588;-122.048;2023-08-31T13:31:29;3.42;;;2.58;;
49221;SDS011;35047;37.588;-122.048;2023-08-31T13:33:56;13.80;;;2.75;;
49221;SDS011;35047;37.588;-122.048;2023-08-31T13:36:22;9.37;;;3.37;;
49221;SDS011;35047;37.588;-122.048;2023-08-31T13:38:49;9.80;;;2.63;;
49221;SDS011;35047;37.588;-122.048;2023-08-31T13:41:15;12.85;;;3.13;;
49221;SDS011;35047;37.588;-122.048;2023-08-31T13:43:42;6.47;;;2.00;;
49221;SDS011;35047;37.588;-122.048;2023-08-31T13:46:09;11.53;;;1.73;;
49221;SDS011;35047;37.588;-122.048;2023-08-31T13:48:36;5.93;;;2.00;;
49221;SDS011;35047;37.588;-122.048;2023-08-31T13:51:03;11.15;;;2.40;;
49221;SDS011;35047;37.588;-122.048;2023-08-31T13:53:29;4.05;;;2.38;;
49221;SDS011;35047;37.588;-122.048;2023-08-31T13:55:56;4.32;;;1.55;;
49221;SDS011;35047;37.588;-122.048;2023-08-31T13:58:22;6.90;;;2.63;;
49221;SDS011;35047;37.588;-122.048;2023-08-31T14:00:48;8.98;;;2.33;;
49221;SDS011;35047;37.588;-122.048;2023-08-31T14:03:15;9.23;;;2.77;;
49221;SDS011;35047;37.588;-122.048;2023-08-31T14:05:42;6.60;;;1.73;;
49221;SDS011;35047;37.588;-122.048;2023-08-31T14:08:12;6.07;;;2.25;;
49221;SDS011;35047;37.588;-122.048;2023-08-31T14:10:39;5.70;;;3.00;;
49221;SDS011;35047;37.588;-122.048;2023-08-31T14:13:05;16.27;;;3.22;;
49221;SDS011;35047;37.588;-122.048;2023-08-31T14:15:32;5.15;;;2.45;;
49221;SDS011;35047;37.588;-122.048;2023-08-31T14:17:59;2.72;;;1.85;;
49221;SDS011;35047;37.588;-122.048;2023-08-31T14:20:25;3.80;;;1.73;;
49221;SDS011;35047;37.588;-122.048;2023-08-31T14:22:52;5.17;;;2.40;;
49221;SDS011;35047;37.588;-122.048;2023-08-31T14:25:18;5.32;;;2.05;;
49221;SDS011;35047;37.588;-122.048;2023-08-31T14:27:46;15.37;;;2.50;;
49221;SDS011;35047;37.588;-122.048;2023-08-31T14:30:13;9.65;;;2.60;;
49221;SDS011;35047;37.588;-122.048;2023-08-31T14:32:40;12.13;;;2.67;;
49221;SDS011;35047;37.588;-122.048;2023-08-31T14:35:06;5.15;;;2.75;;
49221;SDS011;35047;37.588;-122.048;2023-08-31T14:37:33;11.85;;;3.00;;
49221;SDS011;35047;37.588;-122.048;2023-08-31T14:39:59;15.15;;;3.30;;
49221;SDS011;35047;37.588;-122.048;2023-08-31T14:42:26;6.20;;;3.40;;
49221;SDS011;35047;37.588;-122.048;2023-08-31T14:44:52;14.63;;;3.95;;
49221;SDS011;35047;37.588;-122.048;2023-08-31T14:47:19;7.95;;;2.90;;
49221;SDS011;35047;37.588;-122.048;2023-08-31T14:49:45;7.47;;;3.92;;
49221;SDS011;35047;37.588;-122.048;2023-08-31T14:52:12;7.40;;;2.33;;
49221;SDS011;35047;37.588;-122.048;2023-08-31T14:54:38;7.63;;;2.90;;